sensor_id;sensor_type;location;lat;lon;timestamp;temperature;humidity
70336;SHT31;57756;47.408;18.940;2022-07-29T00:00:12;22.98;56.66
70336;SHT31;57756;47.408;18.940;2022-07-29T00:02:37;22.93;57.69
70336;SHT31;57756;47.408;18.940;2022-07-29T00:05:04;22.96;57.05
70336;SHT31;57756;47.408;18.940;2022-07-29T00:07:30;22.93;57.22
70336;SHT31;57756;47.408;18.940;2022-07-29T00:09:55;22.89;57.69
70336;SHT31;57756;47.408;18.940;2022-07-29T00:12:23;22.91;56.57
70336;SHT31;57756;47.408;18.940;2022-07-29T00:14:50;22.91;57.58
70336;SHT31;57756;47.408;18.940;2022-07-29T00:17:15;22.97;56.35
70336;SHT31;57756;47.408;18.940;2022-07-29T00:19:41;22.98;56.73
70336;SHT31;57756;47.408;18.940;2022-07-29T00:22:06;22.94;57.15
70336;SHT31;57756;47.408;18.940;2022-07-29T00:24:32;22.91;57.36
70336;SHT31;57756;47.408;18.940;2022-07-29T00:26:57;22.97;57.00
70336;SHT31;57756;47.408;18.940;2022-07-29T00:29:23;22.91;57.29
70336;SHT31;57756;47.408;18.940;2022-07-29T00:31:49;22.93;57.06
70336;SHT31;57756;47.408;18.940;2022-07-29T00:34:14;22.90;57.71
70336;SHT31;57756;47.408;18.940;2022-07-29T00:36:58;22.90;57.26
70336;SHT31;57756;47.408;18.940;2022-07-29T00:39:24;22.93;57.15
70336;SHT31;57756;47.408;18.940;2022-07-29T00:41:49;22.94;56.85
70336;SHT31;57756;47.408;18.940;2022-07-29T00:44:15;22.96;57.10
70336;SHT31;57756;47.408;18.940;2022-07-29T00:46:41;22.93;56.51
70336;SHT31;57756;47.408;18.940;2022-07-29T00:49:06;23.03;56.48
70336;SHT31;57756;47.408;18.940;2022-07-29T00:51:35;23.01;56.55
70336;SHT31;57756;47.408;18.940;2022-07-29T00:54:01;23.01;56.59
70336;SHT31;57756;47.408;18.940;2022-07-29T00:56:30;23.03;56.72
70336;SHT31;57756;47.408;18.940;2022-07-29T00:58:56;23.00;56.96
70336;SHT31;57756;47.408;18.940;2022-07-29T01:01:22;23.00;56.61
70336;SHT31;57756;47.408;18.940;2022-07-29T01:03:47;23.00;56.41
70336;SHT31;57756;47.408;18.940;2022-07-29T01:06:15;22.98;57.01
70336;SHT31;57756;47.408;18.940;2022-07-29T01:08:40;22.98;56.96
70336;SHT31;57756;47.408;18.940;2022-07-29T01:11:06;22.91;57.67
70336;SHT31;57756;47.408;18.940;2022-07-29T01:13:32;22.91;57.32
70336;SHT31;57756;47.408;18.940;2022-07-29T01:16:03;22.90;56.76
70336;SHT31;57756;47.408;18.940;2022-07-29T01:18:39;22.96;56.78
70336;SHT31;57756;47.408;18.940;2022-07-29T01:26:46;22.91;56.94
70336;SHT31;57756;47.408;18.940;2022-07-29T01:31:51;22.89;57.10
70336;SHT31;57756;47.408;18.940;2022-07-29T01:34:27;22.90;56.36
70336;SHT31;57756;47.408;18.940;2022-07-29T01:37:03;22.93;55.94
70336;SHT31;57756;47.408;18.940;2022-07-29T01:39:32;22.94;56.35
70336;SHT31;57756;47.408;18.940;2022-07-29T01:42:08;22.94;56.50
70336;SHT31;57756;47.408;18.940;2022-07-29T01:44:57;22.87;56.62
70336;SHT31;57756;47.408;18.940;2022-07-29T01:47:28;22.89;57.09
70336;SHT31;57756;47.408;18.940;2022-07-29T01:49:56;22.91;56.61
70336;SHT31;57756;47.408;18.940;2022-07-29T01:52:31;22.90;56.71
70336;SHT31;57756;47.408;18.940;2022-07-29T01:54:59;22.89;56.93
70336;SHT31;57756;47.408;18.940;2022-07-29T01:57:29;22.84;57.70
70336;SHT31;57756;47.408;18.940;2022-07-29T01:59:58;22.79;59.43
70336;SHT31;57756;47.408;18.940;2022-07-29T02:02:26;22.73;59.47
70336;SHT31;57756;47.408;18.940;2022-07-29T02:04:53;22.67;59.23
70336;SHT31;57756;47.408;18.940;2022-07-29T02:07:21;22.66;58.89
70336;SHT31;57756;47.408;18.940;2022-07-29T02:09:49;22.62;59.14
70336;SHT31;57756;47.408;18.940;2022-07-29T02:12:17;22.56;60.11
70336;SHT31;57756;47.408;18.940;2022-07-29T02:14:53;22.46;62.73
70336;SHT31;57756;47.408;18.940;2022-07-29T02:17:32;22.38;62.24
70336;SHT31;57756;47.408;18.940;2022-07-29T02:20:02;22.16;63.59
70336;SHT31;57756;47.408;18.940;2022-07-29T02:22:29;22.21;62.50
70336;SHT31;57756;47.408;18.940;2022-07-29T02:24:57;22.23;61.87
70336;SHT31;57756;47.408;18.940;2022-07-29T02:27:24;22.14;63.16
70336;SHT31;57756;47.408;18.940;2022-07-29T02:29:53;22.09;63.44
70336;SHT31;57756;47.408;18.940;2022-07-29T02:32:21;22.06;62.97
70336;SHT31;57756;47.408;18.940;2022-07-29T02:34:47;22.09;62.79
70336;SHT31;57756;47.408;18.940;2022-07-29T02:37:15;22.08;63.28
70336;SHT31;57756;47.408;18.940;2022-07-29T02:39:43;22.02;63.52
70336;SHT31;57756;47.408;18.940;2022-07-29T02:42:12;21.98;64.18
70336;SHT31;57756;47.408;18.940;2022-07-29T02:44:39;21.95;63.50
70336;SHT31;57756;47.408;18.940;2022-07-29T02:47:12;21.95;63.55
70336;SHT31;57756;47.408;18.940;2022-07-29T02:49:57;21.94;63.36
70336;SHT31;57756;47.408;18.940;2022-07-29T02:55:28;21.90;63.34
70336;SHT31;57756;47.408;18.940;2022-07-29T02:58:02;21.90;62.81
70336;SHT31;57756;47.408;18.940;2022-07-29T03:00:30;21.84;63.56
70336;SHT31;57756;47.408;18.940;2022-07-29T03:02:59;21.84;63.96
70336;SHT31;57756;47.408;18.940;2022-07-29T03:05:26;21.80;64.49
70336;SHT31;57756;47.408;18.940;2022-07-29T03:07:58;21.77;64.44
70336;SHT31;57756;47.408;18.940;2022-07-29T03:10:25;21.76;63.94
70336;SHT31;57756;47.408;18.940;2022-07-29T03:12:51;21.74;63.80
70336;SHT31;57756;47.408;18.940;2022-07-29T03:15:18;21.74;63.98
70336;SHT31;57756;47.408;18.940;2022-07-29T03:17:44;21.73;63.47
70336;SHT31;57756;47.408;18.940;2022-07-29T03:20:11;21.70;64.24
70336;SHT31;57756;47.408;18.940;2022-07-29T03:22:41;21.70;63.36
70336;SHT31;57756;47.408;18.940;2022-07-29T03:25:12;21.74;62.97
70336;SHT31;57756;47.408;18.940;2022-07-29T03:27:38;21.73;63.86
70336;SHT31;57756;47.408;18.940;2022-07-29T03:30:04;21.70;65.08
70336;SHT31;57756;47.408;18.940;2022-07-29T03:32:30;21.66;65.45
70336;SHT31;57756;47.408;18.940;2022-07-29T03:34:55;21.63;65.07
70336;SHT31;57756;47.408;18.940;2022-07-29T03:37:21;21.63;66.51
70336;SHT31;57756;47.408;18.940;2022-07-29T03:39:47;21.61;65.71
70336;SHT31;57756;47.408;18.940;2022-07-29T03:42:15;21.60;66.12
70336;SHT31;57756;47.408;18.940;2022-07-29T03:44:43;21.66;65.67
70336;SHT31;57756;47.408;18.940;2022-07-29T03:47:09;21.67;66.92
70336;SHT31;57756;47.408;18.940;2022-07-29T03:49:37;21.63;66.82
70336;SHT31;57756;47.408;18.940;2022-07-29T03:52:04;21.63;66.44
70336;SHT31;57756;47.408;18.940;2022-07-29T03:54:30;21.64;65.96
70336;SHT31;57756;47.408;18.940;2022-07-29T03:56:59;21.66;65.80
70336;SHT31;57756;47.408;18.940;2022-07-29T03:59:25;21.66;66.21
70336;SHT31;57756;47.408;18.940;2022-07-29T04:01:52;21.66;65.74
70336;SHT31;57756;47.408;18.940;2022-07-29T04:04:18;21.63;66.24
70336;SHT31;57756;47.408;18.940;2022-07-29T04:06:45;21.70;66.68
70336;SHT31;57756;47.408;18.940;2022-07-29T04:09:11;21.71;66.76
70336;SHT31;57756;47.408;18.940;2022-07-29T04:11:41;21.76;65.43
70336;SHT31;57756;47.408;18.940;2022-07-29T04:14:06;21.71;66.78
70336;SHT31;57756;47.408;18.940;2022-07-29T04:16:32;21.76;65.16
70336;SHT31;57756;47.408;18.940;2022-07-29T04:18:58;21.80;65.66
70336;SHT31;57756;47.408;18.940;2022-07-29T04:21:24;21.80;67.91
70336;SHT31;57756;47.408;18.940;2022-07-29T04:23:49;21.83;65.65
70336;SHT31;57756;47.408;18.940;2022-07-29T04:26:19;21.87;64.44
70336;SHT31;57756;47.408;18.940;2022-07-29T04:28:45;21.93;63.38
70336;SHT31;57756;47.408;18.940;2022-07-29T04:31:12;21.98;63.39
70336;SHT31;57756;47.408;18.940;2022-07-29T04:33:38;22.08;63.95
70336;SHT31;57756;47.408;18.940;2022-07-29T04:36:04;22.14;63.14
70336;SHT31;57756;47.408;18.940;2022-07-29T04:38:30;22.21;63.91
70336;SHT31;57756;47.408;18.940;2022-07-29T04:40:56;22.28;63.78
70336;SHT31;57756;47.408;18.940;2022-07-29T04:43:21;22.36;62.94
70336;SHT31;57756;47.408;18.940;2022-07-29T04:45:47;22.46;62.04
70336;SHT31;57756;47.408;18.940;2022-07-29T04:48:12;22.56;62.11
70336;SHT31;57756;47.408;18.940;2022-07-29T04:50:39;22.74;60.09
70336;SHT31;57756;47.408;18.940;2022-07-29T04:53:05;22.97;62.60
70336;SHT31;57756;47.408;18.940;2022-07-29T04:55:30;23.18;58.59
70336;SHT31;57756;47.408;18.940;2022-07-29T04:57:56;23.51;60.17
70336;SHT31;57756;47.408;18.940;2022-07-29T05:00:21;23.76;60.64
70336;SHT31;57756;47.408;18.940;2022-07-29T05:02:48;24.06;56.85
70336;SHT31;57756;47.408;18.940;2022-07-29T05:05:14;24.24;55.45
70336;SHT31;57756;47.408;18.940;2022-07-29T05:07:40;24.45;57.15
70336;SHT31;57756;47.408;18.940;2022-07-29T05:10:06;24.71;57.15
70336;SHT31;57756;47.408;18.940;2022-07-29T05:12:31;24.80;55.60
70336;SHT31;57756;47.408;18.940;2022-07-29T05:14:57;24.99;55.18
70336;SHT31;57756;47.408;18.940;2022-07-29T05:17:22;25.09;55.95
70336;SHT31;57756;47.408;18.940;2022-07-29T05:19:48;25.24;55.72
70336;SHT31;57756;47.408;18.940;2022-07-29T05:22:17;25.44;53.90
70336;SHT31;57756;47.408;18.940;2022-07-29T05:24:43;25.47;52.70
70336;SHT31;57756;47.408;18.940;2022-07-29T05:27:08;25.57;52.24
70336;SHT31;57756;47.408;18.940;2022-07-29T05:29:34;25.86;52.26
70336;SHT31;57756;47.408;18.940;2022-07-29T05:32:00;25.82;51.76
70336;SHT31;57756;47.408;18.940;2022-07-29T05:34:26;26.12;53.04
70336;SHT31;57756;47.408;18.940;2022-07-29T05:36:51;26.36;53.52
70336;SHT31;57756;47.408;18.940;2022-07-29T05:39:17;26.27;50.66
70336;SHT31;57756;47.408;18.940;2022-07-29T05:41:43;26.46;50.71
70336;SHT31;57756;47.408;18.940;2022-07-29T05:44:08;26.26;50.25
70336;SHT31;57756;47.408;18.940;2022-07-29T05:46:34;26.09;50.95
70336;SHT31;57756;47.408;18.940;2022-07-29T05:48:59;26.18;51.00
70336;SHT31;57756;47.408;18.940;2022-07-29T05:51:25;26.46;50.87
70336;SHT31;57756;47.408;18.940;2022-07-29T05:53:50;26.63;50.29
70336;SHT31;57756;47.408;18.940;2022-07-29T05:56:16;26.81;50.03
70336;SHT31;57756;47.408;18.940;2022-07-29T05:58:42;26.80;49.66
70336;SHT31;57756;47.408;18.940;2022-07-29T06:01:08;27.06;50.17
70336;SHT31;57756;47.408;18.940;2022-07-29T06:03:34;26.96;49.40
70336;SHT31;57756;47.408;18.940;2022-07-29T06:06:03;27.39;49.16
70336;SHT31;57756;47.408;18.940;2022-07-29T06:08:28;27.70;48.07
70336;SHT31;57756;47.408;18.940;2022-07-29T06:10:54;27.59;47.33
70336;SHT31;57756;47.408;18.940;2022-07-29T06:13:19;27.69;47.63
70336;SHT31;57756;47.408;18.940;2022-07-29T06:15:45;27.80;47.26
70336;SHT31;57756;47.408;18.940;2022-07-29T06:18:12;28.15;47.16
70336;SHT31;57756;47.408;18.940;2022-07-29T06:20:38;28.69;46.83
70336;SHT31;57756;47.408;18.940;2022-07-29T06:23:04;28.65;45.41
70336;SHT31;57756;47.408;18.940;2022-07-29T06:25:30;28.65;45.77
70336;SHT31;57756;47.408;18.940;2022-07-29T06:27:55;29.00;45.74
70336;SHT31;57756;47.408;18.940;2022-07-29T06:30:21;28.35;45.92
70336;SHT31;57756;47.408;18.940;2022-07-29T06:32:47;28.08;46.95
70336;SHT31;57756;47.408;18.940;2022-07-29T06:35:12;28.02;46.86
70336;SHT31;57756;47.408;18.940;2022-07-29T06:37:38;27.98;46.92
70336;SHT31;57756;47.408;18.940;2022-07-29T06:40:04;28.24;46.21
70336;SHT31;57756;47.408;18.940;2022-07-29T06:42:48;28.67;46.78
70336;SHT31;57756;47.408;18.940;2022-07-29T06:45:14;28.73;47.01
70336;SHT31;57756;47.408;18.940;2022-07-29T06:47:40;28.87;45.46
70336;SHT31;57756;47.408;18.940;2022-07-29T06:50:06;29.20;45.19
70336;SHT31;57756;47.408;18.940;2022-07-29T06:52:31;29.30;44.90
70336;SHT31;57756;47.408;18.940;2022-07-29T06:54:57;28.93;45.03
70336;SHT31;57756;47.408;18.940;2022-07-29T06:57:22;28.92;46.20
70336;SHT31;57756;47.408;18.940;2022-07-29T06:59:48;28.93;45.56
70336;SHT31;57756;47.408;18.940;2022-07-29T07:02:14;29.08;45.29
70336;SHT31;57756;47.408;18.940;2022-07-29T07:04:39;29.06;45.00
70336;SHT31;57756;47.408;18.940;2022-07-29T07:07:05;29.11;45.50
70336;SHT31;57756;47.408;18.940;2022-07-29T07:09:30;29.65;44.06
70336;SHT31;57756;47.408;18.940;2022-07-29T07:11:56;29.54;44.81
70336;SHT31;57756;47.408;18.940;2022-07-29T07:14:21;29.63;44.91
70336;SHT31;57756;47.408;18.940;2022-07-29T07:16:47;29.45;44.10
70336;SHT31;57756;47.408;18.940;2022-07-29T07:19:12;29.95;43.83
70336;SHT31;57756;47.408;18.940;2022-07-29T07:21:38;29.95;43.59
70336;SHT31;57756;47.408;18.940;2022-07-29T07:24:04;30.10;43.93
70336;SHT31;57756;47.408;18.940;2022-07-29T07:26:30;30.69;42.86
70336;SHT31;57756;47.408;18.940;2022-07-29T07:28:55;31.26;41.95
70336;SHT31;57756;47.408;18.940;2022-07-29T07:31:21;31.15;42.15
70336;SHT31;57756;47.408;18.940;2022-07-29T07:33:46;32.04;41.13
70336;SHT31;57756;47.408;18.940;2022-07-29T07:36:12;31.86;40.49
70336;SHT31;57756;47.408;18.940;2022-07-29T07:38:37;32.40;42.82
70336;SHT31;57756;47.408;18.940;2022-07-29T07:41:03;32.40;39.74
70336;SHT31;57756;47.408;18.940;2022-07-29T07:43:28;32.63;40.23
70336;SHT31;57756;47.408;18.940;2022-07-29T07:45:54;32.87;39.10
70336;SHT31;57756;47.408;18.940;2022-07-29T07:48:19;32.90;38.57
70336;SHT31;57756;47.408;18.940;2022-07-29T07:50:45;33.10;39.23
70336;SHT31;57756;47.408;18.940;2022-07-29T07:53:11;33.07;39.16
70336;SHT31;57756;47.408;18.940;2022-07-29T07:55:43;32.64;38.53
70336;SHT31;57756;47.408;18.940;2022-07-29T07:58:09;32.94;40.06
70336;SHT31;57756;47.408;18.940;2022-07-29T08:00:35;32.88;38.81
70336;SHT31;57756;47.408;18.940;2022-07-29T08:03:00;32.76;38.68
70336;SHT31;57756;47.408;18.940;2022-07-29T08:05:26;33.31;39.67
70336;SHT31;57756;47.408;18.940;2022-07-29T08:07:52;33.00;38.35
70336;SHT31;57756;47.408;18.940;2022-07-29T08:10:18;33.19;38.67
70336;SHT31;57756;47.408;18.940;2022-07-29T08:13:05;33.46;38.04
70336;SHT31;57756;47.408;18.940;2022-07-29T08:15:31;33.65;37.65
70336;SHT31;57756;47.408;18.940;2022-07-29T08:17:57;33.73;37.22
70336;SHT31;57756;47.408;18.940;2022-07-29T08:20:22;34.52;39.55
70336;SHT31;57756;47.408;18.940;2022-07-29T08:22:48;35.07;35.97
70336;SHT31;57756;47.408;18.940;2022-07-29T08:25:13;34.61;36.25
70336;SHT31;57756;47.408;18.940;2022-07-29T08:27:39;34.96;35.75
70336;SHT31;57756;47.408;18.940;2022-07-29T08:30:05;34.49;36.40
70336;SHT31;57756;47.408;18.940;2022-07-29T08:32:31;34.54;36.88
70336;SHT31;57756;47.408;18.940;2022-07-29T08:34:56;34.58;36.00
70336;SHT31;57756;47.408;18.940;2022-07-29T08:37:22;34.85;35.95
70336;SHT31;57756;47.408;18.940;2022-07-29T08:39:47;34.54;36.01
70336;SHT31;57756;47.408;18.940;2022-07-29T08:42:13;35.39;38.04
70336;SHT31;57756;47.408;18.940;2022-07-29T08:44:39;35.64;35.61
70336;SHT31;57756;47.408;18.940;2022-07-29T08:47:04;35.78;35.13
70336;SHT31;57756;47.408;18.940;2022-07-29T08:49:32;35.95;35.16
70336;SHT31;57756;47.408;18.940;2022-07-29T08:51:58;36.14;35.21
70336;SHT31;57756;47.408;18.940;2022-07-29T08:54:25;36.29;34.13
70336;SHT31;57756;47.408;18.940;2022-07-29T08:56:51;36.44;33.49
70336;SHT31;57756;47.408;18.940;2022-07-29T08:59:20;36.70;34.32
70336;SHT31;57756;47.408;18.940;2022-07-29T09:01:48;37.18;33.76
70336;SHT31;57756;47.408;18.940;2022-07-29T09:04:14;36.90;33.35
70336;SHT31;57756;47.408;18.940;2022-07-29T09:06:46;36.36;32.90
70336;SHT31;57756;47.408;18.940;2022-07-29T09:09:12;36.32;33.52
70336;SHT31;57756;47.408;18.940;2022-07-29T09:11:39;36.21;33.88
70336;SHT31;57756;47.408;18.940;2022-07-29T09:14:05;36.80;33.61
70336;SHT31;57756;47.408;18.940;2022-07-29T09:16:52;36.87;32.82
70336;SHT31;57756;47.408;18.940;2022-07-29T09:19:35;36.74;33.99
70336;SHT31;57756;47.408;18.940;2022-07-29T09:22:04;37.65;33.62
70336;SHT31;57756;47.408;18.940;2022-07-29T09:27:00;37.94;30.45
70336;SHT31;57756;47.408;18.940;2022-07-29T09:29:25;37.34;31.99
70336;SHT31;57756;47.408;18.940;2022-07-29T09:31:54;37.92;30.72
70336;SHT31;57756;47.408;18.940;2022-07-29T09:34:27;37.38;31.51
70336;SHT31;57756;47.408;18.940;2022-07-29T09:36:55;38.19;30.67
70336;SHT31;57756;47.408;18.940;2022-07-29T09:39:31;37.63;31.18
70336;SHT31;57756;47.408;18.940;2022-07-29T09:41:58;37.52;30.29
70336;SHT31;57756;47.408;18.940;2022-07-29T09:44:24;37.73;29.71
70336;SHT31;57756;47.408;18.940;2022-07-29T09:47:04;37.34;30.53
70336;SHT31;57756;47.408;18.940;2022-07-29T09:49:33;37.27;30.35
70336;SHT31;57756;47.408;18.940;2022-07-29T09:52:09;37.17;30.26
70336;SHT31;57756;47.408;18.940;2022-07-29T09:54:35;37.82;30.03
70336;SHT31;57756;47.408;18.940;2022-07-29T09:57:05;38.61;29.34
70336;SHT31;57756;47.408;18.940;2022-07-29T09:59:32;38.35;29.13
70336;SHT31;57756;47.408;18.940;2022-07-29T10:01:58;37.97;29.15
70336;SHT31;57756;47.408;18.940;2022-07-29T10:04:23;38.16;29.75
70336;SHT31;57756;47.408;18.940;2022-07-29T10:06:59;38.67;29.29
70336;SHT31;57756;47.408;18.940;2022-07-29T10:09:26;39.16;29.31
70336;SHT31;57756;47.408;18.940;2022-07-29T10:12:04;39.53;29.50
70336;SHT31;57756;47.408;18.940;2022-07-29T10:14:32;38.95;27.71
70336;SHT31;57756;47.408;18.940;2022-07-29T10:16:59;37.79;29.32
70336;SHT31;57756;47.408;18.940;2022-07-29T10:19:28;38.41;30.01
70336;SHT31;57756;47.408;18.940;2022-07-29T10:21:55;38.34;31.64
70336;SHT31;57756;47.408;18.940;2022-07-29T10:24:22;39.05;28.84
70336;SHT31;57756;47.408;18.940;2022-07-29T10:26:49;38.35;28.01
70336;SHT31;57756;47.408;18.940;2022-07-29T10:29:15;39.30;27.61
70336;SHT31;57756;47.408;18.940;2022-07-29T10:32:15;38.99;28.53
70336;SHT31;57756;47.408;18.940;2022-07-29T10:40:31;38.69;29.45
70336;SHT31;57756;47.408;18.940;2022-07-29T10:43:20;38.61;29.00
70336;SHT31;57756;47.408;18.940;2022-07-29T10:45:48;39.22;29.24
70336;SHT31;57756;47.408;18.940;2022-07-29T10:48:13;39.61;27.34
70336;SHT31;57756;47.408;18.940;2022-07-29T10:53:22;39.77;27.59
70336;SHT31;57756;47.408;18.940;2022-07-29T10:55:49;39.92;26.88
70336;SHT31;57756;47.408;18.940;2022-07-29T10:58:17;39.19;27.96
70336;SHT31;57756;47.408;18.940;2022-07-29T11:00:43;39.89;28.01
70336;SHT31;57756;47.408;18.940;2022-07-29T11:06:11;39.85;26.08
70336;SHT31;57756;47.408;18.940;2022-07-29T11:08:36;39.82;25.98
70336;SHT31;57756;47.408;18.940;2022-07-29T11:16:16;38.10;28.02
70336;SHT31;57756;47.408;18.940;2022-07-29T11:21:37;38.82;28.56
70336;SHT31;57756;47.408;18.940;2022-07-29T11:24:23;39.13;27.55
70336;SHT31;57756;47.408;18.940;2022-07-29T11:27:09;39.53;26.17
70336;SHT31;57756;47.408;18.940;2022-07-29T11:29:40;39.36;27.41
70336;SHT31;57756;47.408;18.940;2022-07-29T11:32:14;39.23;27.12
70336;SHT31;57756;47.408;18.940;2022-07-29T11:34:41;39.43;28.78
70336;SHT31;57756;47.408;18.940;2022-07-29T11:39:33;39.71;26.65
70336;SHT31;57756;47.408;18.940;2022-07-29T11:45:09;39.68;26.63
70336;SHT31;57756;47.408;18.940;2022-07-29T11:47:37;39.34;27.35
70336;SHT31;57756;47.408;18.940;2022-07-29T11:50:05;39.74;27.52
70336;SHT31;57756;47.408;18.940;2022-07-29T11:52:40;39.36;26.94
70336;SHT31;57756;47.408;18.940;2022-07-29T11:55:14;39.12;26.83
70336;SHT31;57756;47.408;18.940;2022-07-29T11:58:09;39.75;27.10
70336;SHT31;57756;47.408;18.940;2022-07-29T12:00:39;40.12;28.17
70336;SHT31;57756;47.408;18.940;2022-07-29T12:03:08;40.63;27.12
70336;SHT31;57756;47.408;18.940;2022-07-29T12:05:39;40.46;26.70
70336;SHT31;57756;47.408;18.940;2022-07-29T12:10:32;39.97;27.96
70336;SHT31;57756;47.408;18.940;2022-07-29T12:12:57;39.51;27.85
70336;SHT31;57756;47.408;18.940;2022-07-29T12:15:23;38.85;27.18
70336;SHT31;57756;47.408;18.940;2022-07-29T12:17:50;39.49;26.98
70336;SHT31;57756;47.408;18.940;2022-07-29T12:20:28;38.86;27.58
70336;SHT31;57756;47.408;18.940;2022-07-29T12:22:54;39.13;26.66
70336;SHT31;57756;47.408;18.940;2022-07-29T12:25:20;39.36;28.90
70336;SHT31;57756;47.408;18.940;2022-07-29T12:27:57;39.37;26.89
70336;SHT31;57756;47.408;18.940;2022-07-29T12:30:34;39.20;27.00
70336;SHT31;57756;47.408;18.940;2022-07-29T12:33:00;38.75;27.26
70336;SHT31;57756;47.408;18.940;2022-07-29T12:35:25;38.69;28.41
70336;SHT31;57756;47.408;18.940;2022-07-29T12:37:51;38.30;28.28
70336;SHT31;57756;47.408;18.940;2022-07-29T12:40:18;38.75;27.57
70336;SHT31;57756;47.408;18.940;2022-07-29T12:43:16;38.94;27.67
70336;SHT31;57756;47.408;18.940;2022-07-29T12:45:45;39.16;27.47
70336;SHT31;57756;47.408;18.940;2022-07-29T12:48:12;38.85;26.97
70336;SHT31;57756;47.408;18.940;2022-07-29T12:50:55;38.31;28.17
70336;SHT31;57756;47.408;18.940;2022-07-29T12:53:21;37.82;27.89
70336;SHT31;57756;47.408;18.940;2022-07-29T12:55:50;38.04;27.92
70336;SHT31;57756;47.408;18.940;2022-07-29T12:58:27;38.21;28.22
70336;SHT31;57756;47.408;18.940;2022-07-29T13:03:25;38.67;27.26
70336;SHT31;57756;47.408;18.940;2022-07-29T13:05:51;38.76;27.73
70336;SHT31;57756;47.408;18.940;2022-07-29T13:08:17;38.54;27.29
70336;SHT31;57756;47.408;18.940;2022-07-29T13:10:46;38.38;27.92
70336;SHT31;57756;47.408;18.940;2022-07-29T13:13:15;38.32;27.38
70336;SHT31;57756;47.408;18.940;2022-07-29T13:15:43;38.32;27.07
70336;SHT31;57756;47.408;18.940;2022-07-29T13:20:53;38.20;27.09
70336;SHT31;57756;47.408;18.940;2022-07-29T13:23:19;37.69;28.54
70336;SHT31;57756;47.408;18.940;2022-07-29T13:25:44;37.87;27.47
70336;SHT31;57756;47.408;18.940;2022-07-29T13:28:09;37.39;27.90
70336;SHT31;57756;47.408;18.940;2022-07-29T13:30:37;36.91;29.13
70336;SHT31;57756;47.408;18.940;2022-07-29T13:33:03;36.62;28.56
70336;SHT31;57756;47.408;18.940;2022-07-29T13:35:28;36.46;29.08
70336;SHT31;57756;47.408;18.940;2022-07-29T13:37:55;36.18;29.87
70336;SHT31;57756;47.408;18.940;2022-07-29T13:40:20;36.09;32.23
70336;SHT31;57756;47.408;18.940;2022-07-29T13:42:47;35.87;31.25
70336;SHT31;57756;47.408;18.940;2022-07-29T13:45:13;35.58;29.76
70336;SHT31;57756;47.408;18.940;2022-07-29T13:47:39;35.41;29.67
70336;SHT31;57756;47.408;18.940;2022-07-29T13:50:06;35.92;30.49
70336;SHT31;57756;47.408;18.940;2022-07-29T13:52:33;36.12;30.70
70336;SHT31;57756;47.408;18.940;2022-07-29T13:54:59;35.41;31.09
70336;SHT31;57756;47.408;18.940;2022-07-29T13:57:25;35.44;30.24
70336;SHT31;57756;47.408;18.940;2022-07-29T13:59:50;35.26;32.32
70336;SHT31;57756;47.408;18.940;2022-07-29T14:02:16;35.14;32.46
70336;SHT31;57756;47.408;18.940;2022-07-29T14:04:42;35.16;31.23
70336;SHT31;57756;47.408;18.940;2022-07-29T14:07:07;35.25;31.24
70336;SHT31;57756;47.408;18.940;2022-07-29T14:09:33;35.33;30.74
70336;SHT31;57756;47.408;18.940;2022-07-29T14:11:58;35.12;30.51
70336;SHT31;57756;47.408;18.940;2022-07-29T14:14:24;35.29;34.13
70336;SHT31;57756;47.408;18.940;2022-07-29T14:16:50;35.46;33.05
70336;SHT31;57756;47.408;18.940;2022-07-29T14:19:15;35.55;32.46
70336;SHT31;57756;47.408;18.940;2022-07-29T14:21:40;35.57;33.09
70336;SHT31;57756;47.408;18.940;2022-07-29T14:24:06;35.44;32.69
70336;SHT31;57756;47.408;18.940;2022-07-29T14:26:32;35.44;32.90
70336;SHT31;57756;47.408;18.940;2022-07-29T14:28:57;35.30;31.41
70336;SHT31;57756;47.408;18.940;2022-07-29T14:31:23;35.31;31.16
70336;SHT31;57756;47.408;18.940;2022-07-29T14:33:48;35.33;31.36
70336;SHT31;57756;47.408;18.940;2022-07-29T14:36:14;35.25;31.87
70336;SHT31;57756;47.408;18.940;2022-07-29T14:38:39;35.14;30.39
70336;SHT31;57756;47.408;18.940;2022-07-29T14:41:06;34.92;30.85
70336;SHT31;57756;47.408;18.940;2022-07-29T14:43:33;34.76;31.35
70336;SHT31;57756;47.408;18.940;2022-07-29T14:46:00;34.76;31.90
70336;SHT31;57756;47.408;18.940;2022-07-29T14:48:26;34.85;31.12
70336;SHT31;57756;47.408;18.940;2022-07-29T14:50:51;34.83;32.04
70336;SHT31;57756;47.408;18.940;2022-07-29T14:53:17;34.78;30.93
70336;SHT31;57756;47.408;18.940;2022-07-29T14:55:43;34.69;32.51
70336;SHT31;57756;47.408;18.940;2022-07-29T14:58:09;34.58;32.08
70336;SHT31;57756;47.408;18.940;2022-07-29T15:00:35;34.56;30.91
70336;SHT31;57756;47.408;18.940;2022-07-29T15:03:02;34.37;32.96
70336;SHT31;57756;47.408;18.940;2022-07-29T15:05:27;34.31;32.13
70336;SHT31;57756;47.408;18.940;2022-07-29T15:07:53;34.44;31.72
70336;SHT31;57756;47.408;18.940;2022-07-29T15:10:19;34.34;31.75
70336;SHT31;57756;47.408;18.940;2022-07-29T15:12:44;34.20;32.89
70336;SHT31;57756;47.408;18.940;2022-07-29T15:15:10;34.21;31.72
70336;SHT31;57756;47.408;18.940;2022-07-29T15:17:35;34.13;32.27
70336;SHT31;57756;47.408;18.940;2022-07-29T15:20:01;34.09;32.30
70336;SHT31;57756;47.408;18.940;2022-07-29T15:22:27;34.13;31.83
70336;SHT31;57756;47.408;18.940;2022-07-29T15:24:52;34.23;32.17
70336;SHT31;57756;47.408;18.940;2022-07-29T15:27:18;34.17;33.28
70336;SHT31;57756;47.408;18.940;2022-07-29T15:29:43;34.16;33.02
70336;SHT31;57756;47.408;18.940;2022-07-29T15:32:10;34.07;33.23
70336;SHT31;57756;47.408;18.940;2022-07-29T15:34:36;34.09;33.05
70336;SHT31;57756;47.408;18.940;2022-07-29T15:37:02;34.03;32.81
70336;SHT31;57756;47.408;18.940;2022-07-29T15:39:28;33.82;33.88
70336;SHT31;57756;47.408;18.940;2022-07-29T15:41:53;33.80;35.65
70336;SHT31;57756;47.408;18.940;2022-07-29T15:44:19;33.69;34.71
70336;SHT31;57756;47.408;18.940;2022-07-29T15:46:45;33.65;33.41
70336;SHT31;57756;47.408;18.940;2022-07-29T15:49:34;33.56;34.38
70336;SHT31;57756;47.408;18.940;2022-07-29T15:52:01;33.42;37.48
70336;SHT31;57756;47.408;18.940;2022-07-29T15:54:28;33.25;33.39
70336;SHT31;57756;47.408;18.940;2022-07-29T15:56:54;33.35;33.95
70336;SHT31;57756;47.408;18.940;2022-07-29T15:59:21;33.45;32.34
70336;SHT31;57756;47.408;18.940;2022-07-29T16:01:47;33.43;32.12
70336;SHT31;57756;47.408;18.940;2022-07-29T16:04:13;33.46;32.16